Clinton, Louisiana
Current Conditions -  °F | °C
As of 10:53 AM on Friday 28 Nov 2014 (Local Time) from KBTR Reporting Station
Clear Clear  
Wind Chill: 54°   Ceiling: Unl
Heat Index: 54°   Visibility: 10mi
Dew Point: 31°   Wind: 6mph
Humidity: 41%   Direction: NA
Pressure: 30.41"   Gusts: NA
Location:  30.87°N, 91.02°W
Report Text: KBTR 281653Z VRB05KT 10SM CLR 12/M01 A3041 RMK AO2 SLP296 T01221006
Loading
Personal Weather Stations






























Interactive Weather Map New forecast layout! Learn more

10-Day Weather Forecast

Advertisements
Track Severe Weather on mobile